createdAt,value
2018-02-10T00:01:53.565Z,16.10
2018-02-10T00:04:21.210Z,16.13
2018-02-10T00:06:48.871Z,18.63
2018-02-10T00:09:16.535Z,19.40
2018-02-10T00:11:44.229Z,21.93
2018-02-10T00:14:11.890Z,21.90
2018-02-10T00:16:39.532Z,23.27
2018-02-10T00:19:07.285Z,23.73
2018-02-10T00:21:34.938Z,23.87
2018-02-10T00:24:02.587Z,23.67
2018-02-10T00:26:31.026Z,22.37
2018-02-10T00:28:58.753Z,24.53
2018-02-10T00:31:26.407Z,21.93
2018-02-10T00:33:54.068Z,19.83
2018-02-10T00:36:21.796Z,19.27
2018-02-10T00:38:50.236Z,17.03
2018-02-10T00:41:17.906Z,15.60
2018-02-10T00:43:45.547Z,16.27
2018-02-10T00:46:13.192Z,15.43
2018-02-10T00:48:40.890Z,15.73
2018-02-10T00:51:08.608Z,15.77
2018-02-10T00:53:36.251Z,15.60
2018-02-10T00:56:04.682Z,16.20
2018-02-10T00:58:33.091Z,16.93
2018-02-10T01:01:00.751Z,17.13
2018-02-10T01:03:28.422Z,19.63
2018-02-10T01:05:56.875Z,19.17
2018-02-10T01:08:24.514Z,17.77
2018-02-10T01:10:52.239Z,18.77
2018-02-10T01:13:19.925Z,16.57
2018-02-10T01:15:47.571Z,15.30
2018-02-10T01:18:15.207Z,16.03
2018-02-10T01:20:43.678Z,15.30
2018-02-10T01:23:12.074Z,14.87
2018-02-10T01:25:40.498Z,13.60
2018-02-10T01:28:08.252Z,12.53
2018-02-10T01:30:35.919Z,10.63
2018-02-10T01:33:04.340Z,9.07
2018-02-10T01:35:32.766Z,8.63
2018-02-10T01:38:00.394Z,9.13
2018-02-10T01:40:28.088Z,9.70
2018-02-10T01:42:55.746Z,8.83
2018-02-10T01:45:23.379Z,7.90
2018-02-10T01:47:51.058Z,6.80
2018-02-10T01:50:22.595Z,5.80
2018-02-10T01:52:50.262Z,6.23
2018-02-10T01:55:17.895Z,6.83
2018-02-10T01:57:46.313Z,5.93
2018-02-10T02:00:13.985Z,6.80
2018-02-10T02:02:41.625Z,6.70
2018-02-10T02:05:09.372Z,6.87
2018-02-10T02:07:37.062Z,7.07
2018-02-10T02:10:04.731Z,7.13
2018-02-10T02:12:32.384Z,7.83
2018-02-10T02:15:00.063Z,8.90
2018-02-10T02:17:27.720Z,9.10
2018-02-10T02:19:55.379Z,9.17
2018-02-10T02:22:23.039Z,9.83
2018-02-10T02:24:50.672Z,9.90
2018-02-10T02:27:18.354Z,10.73
2018-02-10T02:29:45.996Z,11.03
2018-02-10T02:32:13.671Z,11.63
2018-02-10T02:34:41.334Z,12.03
2018-02-10T02:37:09.007Z,12.10
2018-02-10T02:39:36.697Z,11.67
2018-02-10T02:42:05.115Z,12.23
2018-02-10T02:44:32.769Z,13.53
2018-02-10T02:47:00.434Z,12.30
2018-02-10T02:49:28.101Z,12.03
2018-02-10T02:51:55.758Z,12.73
2018-02-10T02:54:23.408Z,12.53
2018-02-10T02:56:51.055Z,13.60
2018-02-10T02:59:19.494Z,13.93
2018-02-10T03:01:47.314Z,13.63
2018-02-10T03:04:15.027Z,13.47
2018-02-10T03:06:42.717Z,13.23
2018-02-10T03:09:11.152Z,13.67
2018-02-10T03:11:38.837Z,14.07
2018-02-10T03:14:06.505Z,14.00
2018-02-10T03:16:34.946Z,13.17
2018-02-10T03:19:02.602Z,13.53
2018-02-10T03:21:30.276Z,13.03
2018-02-10T03:23:57.940Z,14.50
2018-02-10T03:26:25.619Z,14.07
2018-02-10T03:28:54.070Z,14.27
2018-02-10T03:31:22.488Z,13.43
2018-02-10T03:33:50.898Z,12.43
2018-02-10T03:36:18.561Z,12.73
2018-02-10T03:38:46.236Z,12.67
2018-02-10T03:41:13.901Z,11.67
2018-02-10T03:43:41.599Z,12.47
2018-02-10T03:46:09.234Z,13.20
2018-02-10T03:48:37.669Z,12.80
2018-02-10T03:51:05.342Z,12.67
2018-02-10T03:53:33.011Z,13.03
2018-02-10T03:56:00.662Z,12.80
2018-02-10T03:58:28.393Z,13.43
2018-02-10T04:00:56.842Z,12.73
2018-02-10T04:03:24.507Z,11.30
2018-02-10T04:05:52.177Z,12.47
2018-02-10T04:08:19.855Z,9.67
2018-02-10T04:10:48.287Z,10.40
2018-02-10T04:13:15.955Z,10.73
2018-02-10T04:15:43.638Z,10.00
2018-02-10T04:18:11.289Z,9.60
2018-02-10T04:20:38.946Z,9.20
2018-02-10T04:23:06.610Z,9.17
2018-02-10T04:25:34.279Z,8.47
2018-02-10T04:28:01.986Z,9.40
2018-02-10T04:30:29.618Z,8.83
2018-02-10T04:32:58.021Z,9.43
2018-02-10T04:35:25.678Z,9.37
2018-02-10T04:37:53.320Z,8.83
2018-02-10T04:40:21.726Z,9.80
2018-02-10T04:42:49.383Z,9.33
2018-02-10T04:45:17.038Z,10.50
2018-02-10T04:47:44.675Z,10.20
2018-02-10T04:50:13.097Z,9.17
2018-02-10T04:52:40.754Z,9.83
2018-02-10T04:55:08.414Z,9.03
2018-02-10T04:57:36.066Z,9.30
2018-02-10T05:00:03.771Z,7.97
2018-02-10T05:02:31.413Z,7.40
2018-02-10T05:04:59.053Z,7.93
2018-02-10T05:07:26.794Z,6.63
2018-02-10T05:09:55.231Z,6.60
2018-02-10T05:12:22.973Z,7.00
2018-02-10T05:14:50.674Z,6.57
2018-02-10T05:17:19.115Z,6.37
2018-02-10T05:19:46.755Z,5.77
2018-02-10T05:22:14.383Z,5.10
2018-02-10T05:24:42.817Z,5.60
2018-02-10T05:27:10.473Z,4.23
2018-02-10T05:29:38.127Z,4.27
2018-02-10T05:32:05.825Z,4.03
2018-02-10T05:34:33.486Z,8.37
2018-02-10T05:37:01.138Z,9.90
2018-02-10T05:39:28.781Z,9.90
2018-02-10T05:41:56.453Z,10.60
2018-02-10T05:44:24.110Z,10.80
2018-02-10T05:46:51.772Z,11.20
2018-02-10T05:49:19.435Z,10.27
2018-02-10T05:51:47.074Z,11.03
2018-02-10T05:54:14.734Z,10.67
2018-02-10T05:56:42.390Z,11.23
2018-02-10T05:59:10.059Z,9.50
2018-02-10T06:01:37.709Z,10.47
2018-02-10T06:04:05.387Z,11.20
2018-02-10T06:06:33.073Z,9.27
2018-02-10T06:09:00.744Z,9.63
2018-02-10T06:11:29.185Z,10.10
2018-02-10T06:13:56.840Z,9.90
2018-02-10T06:16:24.480Z,9.63
2018-02-10T06:18:52.117Z,9.60
2018-02-10T06:21:20.541Z,9.97
2018-02-10T06:23:48.217Z,10.23
2018-02-10T06:26:15.922Z,9.57
2018-02-10T06:28:44.372Z,8.70
2018-02-10T06:31:12.007Z,9.43
2018-02-10T06:33:39.679Z,8.47
2018-02-10T06:36:07.327Z,8.77
2018-02-10T06:38:34.978Z,8.70
2018-02-10T06:41:02.639Z,9.30
2018-02-10T06:43:30.316Z,9.30
2018-02-10T06:45:58.066Z,9.87
2018-02-10T06:48:25.753Z,9.80
2018-02-10T06:50:53.408Z,10.10
2018-02-10T06:53:21.093Z,10.53
2018-02-10T06:55:49.566Z,9.70
2018-02-10T06:58:17.216Z,10.47
2018-02-10T07:00:44.886Z,10.50
2018-02-10T07:03:12.563Z,11.00
2018-02-10T07:05:40.994Z,10.10
2018-02-10T07:08:08.645Z,8.97
2018-02-10T07:10:36.305Z,9.63
2018-02-10T07:13:03.946Z,10.87
2018-02-10T07:15:31.587Z,9.73
2018-02-10T07:18:00.028Z,11.17
2018-02-10T07:20:27.713Z,9.90
2018-02-10T07:22:56.143Z,10.70
2018-02-10T07:25:23.787Z,10.77
2018-02-10T07:27:51.423Z,10.47
2018-02-10T07:30:19.850Z,11.50
2018-02-10T07:32:47.518Z,11.53
2018-02-10T07:35:15.192Z,11.70
2018-02-10T07:37:42.879Z,11.30
2018-02-10T07:40:11.326Z,10.80
2018-02-10T07:42:38.986Z,11.13
2018-02-10T07:45:06.658Z,10.63
2018-02-10T07:47:34.326Z,10.80
2018-02-10T07:50:01.966Z,10.87
2018-02-10T07:52:29.620Z,9.90
2018-02-10T07:54:57.292Z,10.97
2018-02-10T07:57:24.946Z,11.23
2018-02-10T07:59:52.613Z,10.77
2018-02-10T08:02:20.267Z,10.73
2018-02-10T08:04:48.224Z,10.73
2018-02-10T08:07:16.656Z,10.90
2018-02-10T08:09:45.172Z,10.57
2018-02-10T08:12:12.793Z,11.37
2018-02-10T08:14:41.266Z,10.90
2018-02-10T08:17:09.691Z,11.57
2018-02-10T08:19:37.341Z,10.60
2018-02-10T08:22:05.028Z,10.83
2018-02-10T08:24:32.666Z,10.33
2018-02-10T08:27:00.424Z,10.60
2018-02-10T08:29:28.081Z,11.83
2018-02-10T08:31:55.725Z,10.43
2018-02-10T08:34:23.383Z,11.13
2018-02-10T08:36:51.814Z,11.00
2018-02-10T08:39:19.466Z,10.00
2018-02-10T08:41:47.177Z,9.93
2018-02-10T08:44:15.598Z,9.80
2018-02-10T08:46:43.255Z,10.47
2018-02-10T08:49:10.913Z,11.47
2018-02-10T08:51:38.579Z,10.70
2018-02-10T08:54:07.034Z,11.10
2018-02-10T08:56:34.688Z,11.10
2018-02-10T08:59:02.336Z,10.67
2018-02-10T09:01:30.761Z,11.07
2018-02-10T09:03:58.462Z,12.37
2018-02-10T09:06:26.895Z,11.20
2018-02-10T09:08:54.578Z,11.50
2018-02-10T09:11:22.266Z,11.57
2018-02-10T09:13:50.689Z,10.77
2018-02-10T09:16:18.321Z,11.63
2018-02-10T09:18:46.768Z,11.77
2018-02-10T09:21:14.485Z,12.43
2018-02-10T09:23:42.162Z,11.93
2018-02-10T09:26:09.814Z,11.80
2018-02-10T09:28:37.502Z,11.90
2018-02-10T09:31:05.176Z,12.13
2018-02-10T09:33:32.866Z,11.60
2018-02-10T09:36:01.293Z,11.53
2018-02-10T09:38:28.950Z,11.33
2018-02-10T09:40:56.625Z,11.53
2018-02-10T09:43:24.289Z,11.50
2018-02-10T09:45:51.950Z,11.73
2018-02-10T09:48:19.641Z,12.37
2018-02-10T09:50:48.078Z,11.37
2018-02-10T09:53:15.807Z,11.60
2018-02-10T09:55:43.473Z,12.03
2018-02-10T09:58:11.125Z,12.73
2018-02-10T10:00:38.986Z,13.00
2018-02-10T10:03:06.648Z,12.57
2018-02-10T10:05:34.291Z,13.13
2018-02-10T10:08:02.734Z,12.33
2018-02-10T10:10:30.386Z,12.17
2018-02-10T10:12:58.027Z,13.07
2018-02-10T10:15:25.667Z,13.20
2018-02-10T10:17:53.329Z,12.63
2018-02-10T10:20:20.998Z,14.13
2018-02-10T10:22:48.636Z,13.80
2018-02-10T10:25:17.081Z,13.27
2018-02-10T10:27:44.716Z,13.57
2018-02-10T10:30:12.408Z,13.70
2018-02-10T10:32:40.137Z,14.43
2018-02-10T10:35:07.806Z,15.07
2018-02-10T10:37:35.675Z,17.70
2018-02-10T10:40:03.339Z,17.73
2018-02-10T10:42:31.001Z,17.13
2018-02-10T10:44:58.665Z,19.10
2018-02-10T10:47:26.313Z,20.00
2018-02-10T10:49:53.969Z,20.60
2018-02-10T10:52:21.634Z,21.33
2018-02-10T10:54:49.273Z,22.13
2018-02-10T10:57:16.982Z,25.50
2018-02-10T10:59:44.637Z,24.40
2018-02-10T11:02:13.072Z,24.87
2018-02-10T11:04:40.770Z,22.17
2018-02-10T11:07:08.427Z,20.33
2018-02-10T11:09:36.090Z,24.13
2018-02-10T11:12:03.733Z,25.23
2018-02-10T11:14:31.377Z,27.63
2018-02-10T11:16:59.064Z,26.50
2018-02-10T11:19:26.720Z,26.33
2018-02-10T11:21:54.397Z,28.70
2018-02-10T11:24:22.061Z,25.93
2018-02-10T11:26:49.701Z,27.30
2018-02-10T11:29:17.454Z,28.47
2018-02-10T11:31:45.907Z,31.30
2018-02-10T11:34:13.583Z,30.17
2018-02-10T11:36:41.220Z,30.50
2018-02-10T11:39:08.858Z,32.40
2018-02-10T11:41:37.293Z,31.27
2018-02-10T11:44:05.710Z,32.80
2018-02-10T11:46:33.725Z,31.20
2018-02-10T11:49:01.389Z,31.20
2018-02-10T11:51:29.049Z,33.30
2018-02-10T11:53:56.776Z,34.03
2018-02-10T11:56:25.217Z,31.50
2018-02-10T11:58:52.869Z,32.10
2018-02-10T12:01:23.185Z,28.80
2018-02-10T12:03:50.885Z,28.77
2018-02-10T12:06:18.636Z,30.23
2018-02-10T12:08:46.273Z,34.07
2018-02-10T12:11:13.923Z,29.87
2018-02-10T12:13:41.600Z,30.53
2018-02-10T12:16:09.276Z,31.50
2018-02-10T12:18:37.452Z,30.57
2018-02-10T12:21:05.140Z,30.47
2018-02-10T12:23:33.568Z,29.67
2018-02-10T12:26:01.219Z,26.13
2018-02-10T12:28:28.881Z,25.20
2018-02-10T12:30:56.572Z,24.97
2018-02-10T12:33:24.303Z,25.93
2018-02-10T12:35:51.950Z,22.67
2018-02-10T12:38:19.599Z,26.53
2018-02-10T12:40:47.230Z,24.93
2018-02-10T12:43:15.729Z,23.63
2018-02-10T12:45:43.404Z,24.20
2018-02-10T12:48:16.624Z,25.40
2018-02-10T12:50:44.279Z,23.20
2018-02-10T12:53:11.954Z,25.50
2018-02-10T12:55:39.666Z,27.37
2018-02-10T12:58:07.298Z,26.80
2018-02-10T13:00:34.946Z,26.97
2018-02-10T13:03:02.666Z,27.60
2018-02-10T13:05:30.321Z,29.73
2018-02-10T13:07:57.992Z,32.23
2018-02-10T13:10:27.134Z,30.47
2018-02-10T13:12:54.841Z,29.50
2018-02-10T13:15:23.333Z,28.67
2018-02-10T13:17:51.079Z,29.50
2018-02-10T13:20:18.708Z,33.30
2018-02-10T13:22:47.183Z,31.57
2018-02-10T13:25:14.849Z,30.50
2018-02-10T13:27:43.327Z,31.43
2018-02-10T13:30:11.922Z,29.20
2018-02-10T13:32:40.345Z,31.37
2018-02-10T13:35:08.010Z,29.10
2018-02-10T13:37:35.714Z,28.37
2018-02-10T13:40:04.170Z,28.10
2018-02-10T13:42:31.829Z,27.70
2018-02-10T13:44:59.513Z,29.23
2018-02-10T13:47:27.933Z,30.53
2018-02-10T13:49:55.597Z,29.47
2018-02-10T13:52:23.272Z,26.87
2018-02-10T13:54:50.914Z,26.10
2018-02-10T13:57:18.605Z,26.83
2018-02-10T13:59:46.273Z,29.13
2018-02-10T14:02:13.997Z,27.10
2018-02-10T14:04:41.689Z,25.00
2018-02-10T14:07:09.536Z,24.20
2018-02-10T14:09:37.261Z,26.47
2018-02-10T14:12:05.684Z,25.73
2018-02-10T14:14:33.347Z,24.70
2018-02-10T14:17:01.041Z,25.07
2018-02-10T14:19:29.506Z,23.70
2018-02-10T14:21:57.218Z,22.40
2018-02-10T14:24:25.041Z,22.73
2018-02-10T14:26:53.510Z,23.00
2018-02-10T14:29:21.200Z,21.33
2018-02-10T14:31:49.697Z,23.17
2018-02-10T14:34:17.483Z,23.03
2018-02-10T14:36:45.198Z,22.40
2018-02-10T14:39:13.623Z,22.23
2018-02-10T14:41:41.276Z,21.23
2018-02-10T14:44:08.984Z,22.17
2018-02-10T14:46:36.649Z,21.07
2018-02-10T14:49:04.336Z,21.43
2018-02-10T14:51:31.994Z,20.33
2018-02-10T14:53:59.676Z,21.33
2018-02-10T14:56:27.401Z,21.00
2018-02-10T14:58:55.867Z,21.13
2018-02-10T15:01:23.544Z,21.17
2018-02-10T15:03:51.964Z,22.60
2018-02-10T15:06:20.401Z,22.40
2018-02-10T15:08:48.854Z,21.87
2018-02-10T15:11:16.537Z,22.53
2018-02-10T15:13:44.983Z,21.80
2018-02-10T15:16:12.672Z,23.53
2018-02-10T15:18:40.316Z,20.63
2018-02-10T15:21:08.059Z,20.33
2018-02-10T15:23:35.718Z,22.60
2018-02-10T15:26:04.364Z,21.30
2018-02-10T15:28:32.030Z,21.30
2018-02-10T15:31:11.826Z,21.53
2018-02-10T15:33:51.366Z,21.07
2018-02-10T15:36:19.101Z,21.90
2018-02-10T15:38:46.769Z,21.50
2018-02-10T15:41:14.447Z,20.60
2018-02-10T15:43:42.127Z,20.93
2018-02-10T15:46:09.884Z,20.07
2018-02-10T15:48:37.563Z,20.07
2018-02-10T15:51:05.994Z,19.07
2018-02-10T15:53:33.830Z,19.77
2018-02-10T15:56:01.539Z,20.73
2018-02-10T15:58:29.189Z,19.13
2018-02-10T16:00:56.852Z,20.33
2018-02-10T16:03:24.478Z,19.60
2018-02-10T16:05:52.133Z,19.43
2018-02-10T16:08:19.779Z,19.67
2018-02-10T16:10:48.202Z,17.93
2018-02-10T16:13:15.963Z,20.37
2018-02-10T16:15:45.206Z,19.77
2018-02-10T16:18:13.609Z,20.27
2018-02-10T16:20:41.257Z,20.53
2018-02-10T16:23:09.792Z,18.83
2018-02-10T16:25:37.662Z,19.87
2018-02-10T16:28:05.348Z,18.90
2018-02-10T16:30:33.764Z,20.87
2018-02-10T16:33:02.005Z,18.90
2018-02-10T16:35:30.540Z,20.10
2018-02-10T16:37:58.288Z,20.40
2018-02-10T16:40:25.918Z,20.13
2018-02-10T16:42:54.380Z,20.03
2018-02-10T16:45:22.814Z,20.87
2018-02-10T16:47:50.482Z,19.97
2018-02-10T16:50:18.149Z,19.27
2018-02-10T16:52:45.798Z,20.93
2018-02-10T16:55:13.491Z,21.93
2018-02-10T16:57:41.201Z,21.60
2018-02-10T17:00:08.910Z,21.40
2018-02-10T17:02:36.582Z,22.40
2018-02-10T17:05:04.304Z,21.93
2018-02-10T17:07:31.981Z,22.90
2018-02-10T17:09:59.672Z,23.40
2018-02-10T17:12:28.128Z,23.37
2018-02-10T17:14:55.802Z,23.70
2018-02-10T17:17:23.537Z,24.53
2018-02-10T17:19:52.048Z,25.30
2018-02-10T17:22:20.596Z,25.27
2018-02-10T17:24:48.299Z,26.60
2018-02-10T17:27:16.831Z,27.03
2018-02-10T17:29:44.495Z,25.00
2018-02-10T17:32:12.155Z,26.13
2018-02-10T17:34:40.674Z,26.30
2018-02-10T17:37:08.358Z,26.43
2018-02-10T17:39:36.005Z,26.60
2018-02-10T17:42:04.445Z,25.40
2018-02-10T17:44:32.916Z,26.63
2018-02-10T17:47:00.562Z,25.93
2018-02-10T17:49:28.229Z,27.17
2018-02-10T17:51:55.864Z,27.73
2018-02-10T17:54:23.561Z,29.07
2018-02-10T17:56:51.282Z,28.33
2018-02-10T17:59:19.822Z,28.60
2018-02-10T18:01:49.004Z,29.97
2018-02-10T18:04:16.679Z,29.80
2018-02-10T18:06:44.385Z,28.47
2018-02-10T18:09:12.054Z,29.27
2018-02-10T18:11:39.755Z,29.10
2018-02-10T18:14:07.448Z,30.13
2018-02-10T18:16:35.889Z,29.43
2018-02-10T18:19:03.580Z,29.77
2018-02-10T18:21:32.022Z,31.10
2018-02-10T18:23:59.709Z,29.50
2018-02-10T18:26:27.368Z,30.17
2018-02-10T18:28:55.000Z,29.30
2018-02-10T18:31:22.669Z,31.23
2018-02-10T18:33:50.341Z,29.80
2018-02-10T18:36:17.999Z,30.47
2018-02-10T18:38:45.639Z,30.13
2018-02-10T18:41:13.326Z,29.90
2018-02-10T18:43:40.969Z,30.70
2018-02-10T18:46:08.647Z,31.27
2018-02-10T18:48:36.301Z,30.83
2018-02-10T18:51:03.981Z,30.43
2018-02-10T18:53:31.657Z,32.73
2018-02-10T18:56:00.055Z,31.23
2018-02-10T18:58:27.695Z,31.30
2018-02-10T19:00:56.119Z,32.97
2018-02-10T19:03:23.812Z,31.07
2018-02-10T19:05:51.604Z,29.23
2018-02-10T19:08:20.081Z,30.17
2018-02-10T19:10:49.461Z,28.13
2018-02-10T19:13:17.133Z,28.60
2018-02-10T19:15:44.815Z,30.87
2018-02-10T19:18:13.262Z,30.00
2018-02-10T19:20:40.962Z,31.83
2018-02-10T19:23:08.755Z,32.27
2018-02-10T19:25:36.519Z,31.80
2018-02-10T19:28:04.196Z,30.17
2018-02-10T19:30:31.889Z,30.30
2018-02-10T19:33:00.345Z,31.77
2018-02-10T19:35:28.783Z,29.50
2018-02-10T19:37:56.469Z,30.27
2018-02-10T19:40:24.130Z,29.90
2018-02-10T19:42:51.821Z,29.37
2018-02-10T19:45:19.551Z,28.93
2018-02-10T19:47:47.209Z,30.23
2018-02-10T19:50:14.910Z,28.50
2018-02-10T19:52:42.596Z,29.40
2018-02-10T19:55:10.269Z,28.03
2018-02-10T19:57:37.927Z,29.60
2018-02-10T20:00:05.641Z,28.37
2018-02-10T20:02:33.310Z,26.73
2018-02-10T20:05:00.983Z,26.90
2018-02-10T20:07:29.408Z,28.50
2018-02-10T20:09:57.071Z,28.13
2018-02-10T20:12:24.716Z,28.57
2018-02-10T20:14:52.381Z,29.70
2018-02-10T20:17:20.081Z,27.93
2018-02-10T20:19:47.756Z,26.13
2018-02-10T20:22:15.399Z,25.93
2018-02-10T20:24:43.120Z,25.70
2018-02-10T20:27:10.775Z,24.23
2018-02-10T20:29:38.473Z,23.13
2018-02-10T20:32:06.175Z,22.23
2018-02-10T20:34:34.620Z,22.63
2018-02-10T20:37:02.291Z,22.47
2018-02-10T20:39:30.046Z,23.07
2018-02-10T20:41:57.702Z,21.87
2018-02-10T20:44:25.339Z,23.13
2018-02-10T20:46:53.033Z,25.70
2018-02-10T20:49:20.740Z,24.40
2018-02-10T20:51:48.464Z,24.33
2018-02-10T20:54:16.208Z,25.73
2018-02-10T20:56:43.878Z,23.63
2018-02-10T20:59:11.537Z,24.70
2018-02-10T21:01:39.286Z,24.50
2018-02-10T21:04:06.949Z,23.13
2018-02-10T21:06:34.604Z,21.97
2018-02-10T21:09:02.313Z,22.47
2018-02-10T21:11:30.738Z,22.20
2018-02-10T21:13:58.405Z,21.57
2018-02-10T21:16:26.079Z,22.57
2018-02-10T21:18:53.785Z,22.10
2018-02-10T21:21:22.313Z,20.73
2018-02-10T21:23:50.060Z,21.43
2018-02-10T21:26:17.767Z,20.20
2018-02-10T21:28:46.176Z,21.70
2018-02-10T21:31:13.868Z,21.33
2018-02-10T21:33:41.578Z,21.43
2018-02-10T21:36:10.030Z,19.63
2018-02-10T21:38:37.764Z,21.57
2018-02-10T21:41:05.481Z,20.50
2018-02-10T21:43:33.917Z,19.43
2018-02-10T21:46:01.570Z,20.57
2018-02-10T21:48:29.209Z,19.20
2018-02-10T21:50:56.881Z,18.47
2018-02-10T21:53:24.546Z,19.33
2018-02-10T21:55:52.249Z,17.73
2018-02-10T21:58:20.682Z,17.30
2018-02-10T22:00:48.323Z,17.47
2018-02-10T22:03:15.969Z,18.07
2018-02-10T22:05:43.676Z,18.17
2018-02-10T22:08:11.326Z,18.03
2018-02-10T22:10:38.970Z,18.57
2018-02-10T22:13:06.657Z,18.27
2018-02-10T22:15:34.333Z,19.60
2018-02-10T22:18:01.994Z,19.40
2018-02-10T22:20:29.644Z,17.43
2018-02-10T22:22:57.302Z,18.30
2018-02-10T22:25:25.781Z,17.57
2018-02-10T22:27:53.449Z,18.37
2018-02-10T22:30:21.079Z,18.67
2018-02-10T22:32:48.754Z,18.60
2018-02-10T22:35:16.465Z,18.27
2018-02-10T22:37:44.877Z,17.30
2018-02-10T22:40:12.637Z,16.87
2018-02-10T22:42:40.319Z,17.27
2018-02-10T22:45:08.007Z,18.50
2018-02-10T22:47:35.686Z,16.67
2018-02-10T22:50:04.159Z,17.07
2018-02-10T22:52:31.809Z,17.43
2018-02-10T22:54:59.464Z,17.80
2018-02-10T22:57:27.098Z,17.37
2018-02-10T22:59:54.753Z,17.17
2018-02-10T23:02:22.405Z,16.67
2018-02-10T23:04:50.074Z,16.53
2018-02-10T23:07:17.811Z,15.53
2018-02-10T23:09:45.466Z,16.10
2018-02-10T23:12:13.862Z,16.13
2018-02-10T23:14:41.490Z,16.77
2018-02-10T23:17:09.897Z,16.03
2018-02-10T23:19:37.582Z,16.10
2018-02-10T23:22:05.258Z,16.07
2018-02-10T23:24:32.910Z,17.13
2018-02-10T23:27:00.559Z,16.70
2018-02-10T23:29:28.233Z,16.30
2018-02-10T23:31:55.874Z,16.80
2018-02-10T23:34:23.519Z,17.23
2018-02-10T23:36:51.181Z,18.13
2018-02-10T23:39:18.832Z,16.70
2018-02-10T23:41:46.482Z,16.93
2018-02-10T23:44:14.933Z,17.23
2018-02-10T23:46:42.712Z,16.97
2018-02-10T23:49:11.284Z,18.73
2018-02-10T23:51:39.844Z,17.60
2018-02-10T23:54:07.644Z,18.93
2018-02-10T23:56:35.491Z,17.90
2018-02-10T23:59:04.118Z,18.13
